Time;durP1;ratioP1;P1;durP2;ratioP2;P2;SDS_P1;SDS_P2;PMS_P1;PMS_P2;Temp;Humidity;BMP_temperature;BMP_pressure;BME280_temperature;BME280_humidity;BME280_pressure;Samples;Min_cycle;Max_cycle;Signal;HPM_P1;HPM_P2
2023/11/04 00:00:53;;;;;;;5.57;1.02;;;;;;;8.29;93.99;98058.13;5160658;28;20027;-72
2023/11/04 00:03:23;;;;;;;4.43;1.10;;;;;;;8.33;93.46;98053.53;5168823;28;20266;-73
2023/11/04 00:05:53;;;;;;;4.63;1.02;;;;;;;8.26;93.13;98062.69;5157380;28;20096;-73
2023/11/04 00:08:25;;;;;;;3.22;0.88;;;;;;;8.09;93.59;98061.19;5162755;28;20028;-72
2023/11/04 00:10:56;;;;;;;8.30;1.52;;;;;;;8.06;94.94;98066.56;5165527;28;20163;-73
2023/11/04 00:13:26;;;;;;;7.60;1.20;;;;;;;7.98;95.40;98066.25;5166810;28;20080;-73
2023/11/04 00:15:57;;;;;;;5.18;1.05;;;;;;;7.71;97.73;98062.81;5159844;28;20026;-73
2023/11/04 00:18:28;;;;;;;2.35;0.52;;;;;;;7.83;97.44;98069.81;5166021;28;20685;-73
2023/11/04 00:20:58;;;;;;;3.60;0.85;;;;;;;7.76;96.80;98076.38;5168144;28;20026;-73
2023/11/04 00:23:28;;;;;;;7.25;0.88;;;;;;;7.84;97.54;98074.09;5168174;28;20426;-74
2023/11/04 00:25:59;;;;;;;5.75;1.00;;;;;;;7.91;96.34;98070.16;5162125;28;20339;-72
2023/11/04 00:28:31;;;;;;;5.93;0.95;;;;;;;7.85;96.54;98070.56;5162678;28;20033;-73
2023/11/04 00:31:01;;;;;;;10.40;1.23;;;;;;;7.87;96.85;98066.09;5161839;28;20503;-73
2023/11/04 00:33:31;;;;;;;8.00;1.30;;;;;;;8.03;94.74;98069.38;5162327;28;20250;-73
2023/11/04 00:36:02;;;;;;;6.72;1.20;;;;;;;7.93;96.53;98065.72;5163245;28;20109;-73
2023/11/04 00:38:33;;;;;;;6.70;1.00;;;;;;;7.88;97.35;98072.94;5164631;28;20025;-73
2023/11/04 00:41:06;;;;;;;9.00;1.50;;;;;;;7.84;97.95;98071.50;5163768;28;20057;-73
2023/11/04 00:43:36;;;;;;;8.00;1.02;;;;;;;7.87;96.63;98075.66;5162540;28;20391;-73
2023/11/04 00:46:06;;;;;;;9.95;1.42;;;;;;;7.81;96.85;98079.50;5166263;28;20037;-73
2023/11/04 00:48:38;;;;;;;8.02;1.40;;;;;;;7.67;98.24;98079.53;5161038;28;20032;-73
2023/11/04 00:51:08;;;;;;;7.22;1.17;;;;;;;7.68;99.69;98080.38;5160850;28;20113;-73
2023/11/04 00:53:39;;;;;;;4.20;0.82;;;;;;;7.61;99.49;98081.69;5163214;28;20591;-73
2023/11/04 00:56:09;;;;;;;3.88;0.82;;;;;;;7.58;99.99;98080.13;5161400;28;20034;-73
2023/11/04 00:58:39;;;;;;;7.13;1.00;;;;;;;7.54;98.71;98078.63;5165287;28;20117;-73
2023/11/04 01:01:10;;;;;;;6.72;1.15;;;;;;;7.57;98.89;98086.25;5163095;28;20031;-73
2023/11/04 01:03:40;;;;;;;7.32;1.02;;;;;;;7.55;98.93;98080.31;5164639;28;20049;-73
2023/11/04 01:06:10;;;;;;;6.30;0.82;;;;;;;7.57;98.37;98081.06;5165670;28;20030;-73
2023/11/04 01:08:41;;;;;;;7.22;1.00;;;;;;;7.54;96.60;98078.63;5162370;28;20136;-73
2023/11/04 01:11:11;;;;;;;2.90;0.60;;;;;;;7.57;97.86;98082.81;5160244;28;20029;-72
2023/11/04 01:13:41;;;;;;;8.82;1.38;;;;;;;7.44;98.51;98097.50;5162447;28;20018;-73
2023/11/04 01:16:12;;;;;;;5.80;1.10;;;;;;;7.55;98.64;98082.91;5166311;28;20061;-73
2023/11/04 01:18:42;;;;;;;6.35;1.10;;;;;;;7.52;97.71;98096.09;5166311;28;20109;-73
2023/11/04 01:21:12;;;;;;;8.13;1.10;;;;;;;7.45;97.94;98083.59;5164551;28;20030;-73
2023/11/04 01:23:43;;;;;;;5.90;1.00;;;;;;;7.46;98.67;98083.50;5163691;28;20813;-73
2023/11/04 01:26:13;;;;;;;6.10;0.90;;;;;;;7.40;97.97;98083.91;5166015;28;20395;-74
2023/11/04 01:28:44;;;;;;;6.75;1.00;;;;;;;7.34;98.72;98084.25;5166777;28;20442;-75
2023/11/04 01:31:14;;;;;;;7.93;1.20;;;;;;;7.30;98.74;98074.16;5165736;28;20037;-73
2023/11/04 01:33:45;;;;;;;6.32;1.48;;;;;;;7.26;98.58;98090.03;5164461;28;20071;-74
2023/11/04 01:36:15;;;;;;;6.28;1.00;;;;;;;7.21;99.38;98094.66;5140063;28;20796;-74
2023/11/04 01:38:45;;;;;;;7.78;1.10;;;;;;;7.25;98.61;98080.59;5160399;28;20493;-74
2023/11/04 01:41:16;;;;;;;8.40;1.20;;;;;;;7.18;100.00;98082.72;5151922;28;20028;-73
2023/11/04 01:43:46;;;;;;;6.43;1.10;;;;;;;7.25;99.31;98083.19;5152008;28;20079;-73
2023/11/04 01:46:21;;;;;;;10.57;1.45;;;;;;;7.25;98.73;98078.81;5161005;28;20030;-73
2023/11/04 01:48:52;;;;;;;7.35;1.33;;;;;;;7.16;99.32;98081.13;5165727;28;20033;-74
2023/11/04 01:51:22;;;;;;;5.65;1.00;;;;;;;7.06;99.08;98070.47;5168141;28;20045;-73
2023/11/04 01:53:55;;;;;;;6.72;1.10;;;;;;;7.02;99.38;98073.34;5166438;28;20037;-73
2023/11/04 01:56:33;;;;;;;2.28;0.70;;;;;;;7.01;98.36;98072.53;5163754;28;20026;-73
2023/11/04 01:59:04;;;;;;;6.60;1.00;;;;;;;7.01;100.00;98071.69;5165614;28;20484;-73
2023/11/04 02:01:35;;;;;;;10.60;1.30;;;;;;;6.97;100.00;98072.81;5163290;28;20026;-75
2023/11/04 02:04:06;;;;;;;4.13;0.63;;;;;;;6.92;100.00;98075.69;5168994;28;20133;-73
2023/11/04 02:06:36;;;;;;;7.28;0.90;;;;;;;6.97;100.00;98075.41;5167619;28;20097;-73
2023/11/04 02:09:07;;;;;;;3.28;0.80;;;;;;;6.93;100.00;98064.38;5165810;28;20209;-73
2023/11/04 02:11:37;;;;;;;8.52;1.08;;;;;;;6.84;100.00;98061.50;5164805;28;20484;-73
2023/11/04 02:14:09;;;;;;;8.60;0.85;;;;;;;6.86;100.00;98057.03;5166997;28;20400;-75
2023/11/04 02:16:40;;;;;;;3.40;1.00;;;;;;;6.91;100.00;98060.22;5166301;28;20080;-73
2023/11/04 02:19:10;;;;;;;7.57;1.00;;;;;;;7.10;100.00;98060.75;5167268;28;20026;-73
2023/11/04 02:21:40;;;;;;;6.10;0.75;;;;;;;7.11;100.00;98054.63;5166748;28;20026;-73
2023/11/04 02:24:12;;;;;;;8.77;2.08;;;;;;;7.16;100.00;98055.16;5162851;28;20535;-73
2023/11/04 02:26:42;;;;;;;7.35;1.25;;;;;;;7.26;100.00;98053.69;5162455;28;20042;-73
2023/11/04 02:29:14;;;;;;;4.70;0.70;;;;;;;7.35;100.00;98052.16;5166613;28;20023;-73
2023/11/04 02:31:45;;;;;;;8.80;1.25;;;;;;;7.41;99.18;98054.38;5159514;28;20061;-74
2023/11/04 02:34:16;;;;;;;4.07;0.73;;;;;;;7.41;99.96;98054.38;5166475;28;20018;-73
2023/11/04 02:36:46;;;;;;;2.85;0.68;;;;;;;7.39;100.00;98053.63;5164426;28;20025;-73
2023/11/04 02:39:18;;;;;;;5.03;0.88;;;;;;;7.45;99.97;98044.63;5166974;28;20033;-73
2023/11/04 02:41:49;;;;;;;9.80;1.15;;;;;;;7.57;98.95;98047.28;5165479;28;20381;-73
2023/11/04 02:44:19;;;;;;;3.55;0.75;;;;;;;7.58;98.82;98037.72;5164748;28;20076;-73
2023/11/04 02:46:49;;;;;;;2.75;0.70;;;;;;;7.59;98.29;98034.19;5164088;28;20026;-73
2023/11/04 02:49:20;;;;;;;5.82;1.10;;;;;;;7.65;97.97;98042.41;5168221;28;20104;-73
2023/11/04 02:51:50;;;;;;;4.45;0.98;;;;;;;7.65;98.27;98044.16;5163243;28;20022;-73
2023/11/04 02:54:20;;;;;;;6.38;0.88;;;;;;;7.67;97.83;98040.56;5166822;28;20026;-72
2023/11/04 02:56:51;;;;;;;4.28;0.90;;;;;;;7.62;98.23;98034.81;5162234;28;20045;-73
2023/11/04 02:59:21;;;;;;;4.30;0.98;;;;;;;7.59;99.01;98035.03;5166530;28;20026;-74
2023/11/04 03:01:51;;;;;;;15.15;0.90;;;;;;;7.66;98.33;98036.28;5164573;28;20051;-74
2023/11/04 03:04:22;;;;;;;4.28;1.30;;;;;;;7.66;98.23;98038.06;5166534;28;20030;-73
2023/11/04 03:06:52;;;;;;;5.90;1.27;;;;;;;7.58;98.04;98038.56;5164150;28;20487;-73
2023/11/04 03:09:22;;;;;;;3.05;0.68;;;;;;;7.55;97.50;98043.09;5167416;28;20199;-73
2023/11/04 03:11:54;;;;;;;5.15;1.05;;;;;;;7.51;98.85;98045.06;5164717;28;20049;-73
2023/11/04 03:14:25;;;;;;;4.80;0.85;;;;;;;7.48;98.72;98047.00;5167311;28;20032;-70
2023/11/04 03:16:59;;;;;;;6.93;1.75;;;;;;;7.40;99.99;98042.34;5163687;28;20030;-75
2023/11/04 03:19:29;;;;;;;4.57;0.90;;;;;;;7.44;99.12;98046.41;5163681;28;20053;-74
2023/11/04 03:21:59;;;;;;;2.85;0.63;;;;;;;7.54;98.43;98047.47;5165727;28;20115;-73
2023/11/04 03:24:29;;;;;;;5.93;0.82;;;;;;;7.51;98.36;98046.84;5164851;28;20088;-73
2023/11/04 03:27:00;;;;;;;2.60;0.85;;;;;;;7.39;98.79;98051.03;5164512;28;20515;-74
2023/11/04 03:29:30;;;;;;;8.20;0.77;;;;;;;7.36;98.89;98053.81;5166824;28;20041;-74
2023/11/04 03:32:00;;;;;;;5.60;0.95;;;;;;;7.41;98.99;98050.94;5162163;28;20057;-74
2023/11/04 03:34:31;;;;;;;4.43;0.63;;;;;;;7.38;98.56;98046.75;5165517;28;20064;-73
2023/11/04 03:37:02;;;;;;;4.47;0.90;;;;;;;7.31;99.62;98050.69;5162780;28;20030;-74
2023/11/04 03:39:33;;;;;;;3.55;0.65;;;;;;;7.35;98.64;98041.75;5165930;28;20018;-74
2023/11/04 03:42:03;;;;;;;2.53;0.60;;;;;;;7.31;98.93;98050.69;5163489;28;20053;-74
2023/11/04 03:44:33;;;;;;;3.50;0.98;;;;;;;7.33;99.58;98043.63;5164224;28;20511;-75
2023/11/04 03:47:04;;;;;;;4.45;0.90;;;;;;;7.35;99.08;98031.38;5165089;28;20113;-73
2023/11/04 03:49:34;;;;;;;5.53;0.70;;;;;;;7.27;98.98;98032.78;5166220;28;20029;-74
2023/11/04 03:52:06;;;;;;;4.63;0.93;;;;;;;7.27;98.28;98027.59;5163624;28;20038;-73
2023/11/04 03:54:36;;;;;;;4.25;0.95;;;;;;;7.29;98.37;98026.56;5165829;28;20029;-73
2023/11/04 03:57:07;;;;;;;4.57;0.68;;;;;;;7.30;97.60;98025.66;5164656;28;20030;-74
2023/11/04 03:59:38;;;;;;;7.60;0.73;;;;;;;7.28;99.16;98035.31;5167043;28;20296;-74
2023/11/04 04:02:08;;;;;;;6.43;0.85;;;;;;;7.39;98.37;98030.25;5165704;28;20357;-73
2023/11/04 04:04:38;;;;;;;3.78;0.75;;;;;;;7.34;98.05;98021.91;5163815;28;20089;-73
2023/11/04 04:07:09;;;;;;;6.15;0.82;;;;;;;7.38;99.67;98025.97;5167957;28;20102;-73
2023/11/04 04:09:39;;;;;;;3.45;0.80;;;;;;;7.48;99.28;98027.06;5164828;28;20029;-74
2023/11/04 04:12:09;;;;;;;4.05;1.00;;;;;;;7.47;98.35;98024.56;5165112;28;20556;-74
2023/11/04 04:14:44;;;;;;;3.85;0.80;;;;;;;7.54;98.80;98024.06;5163835;28;20022;-74
2023/11/04 04:17:14;;;;;;;2.55;0.70;;;;;;;7.58;98.17;98027.31;5163559;28;20487;-71
2023/11/04 04:19:47;;;;;;;1.40;0.55;;;;;;;7.56;97.93;98022.22;5165020;28;20037;-74
2023/11/04 04:22:17;;;;;;;4.22;0.70;;;;;;;7.64;97.66;98021.72;5162938;28;20026;-73
2023/11/04 04:24:48;;;;;;;3.53;0.80;;;;;;;7.53;98.43;98019.00;5162797;28;20635;-73
2023/11/04 04:27:18;;;;;;;4.10;1.27;;;;;;;7.57;99.12;98015.25;5163577;28;20026;-73
2023/11/04 04:29:49;;;;;;;3.70;0.73;;;;;;;7.62;98.25;98018.38;5161674;28;20037;-73
2023/11/04 04:32:19;;;;;;;5.60;0.77;;;;;;;7.56;97.90;98021.38;5164331;28;20064;-74
2023/11/04 04:34:49;;;;;;;1.92;0.65;;;;;;;7.59;97.62;98011.66;5164107;28;20500;-74
2023/11/04 04:37:20;;;;;;;2.90;0.60;;;;;;;7.69;97.29;98015.28;5163744;28;20040;-74
2023/11/04 04:39:51;;;;;;;3.35;0.70;;;;;;;7.54;97.81;98005.88;5163207;28;20476;-73
2023/11/04 04:42:21;;;;;;;4.60;0.80;;;;;;;7.55;97.84;98009.34;5166184;28;20616;-73
2023/11/04 04:44:51;;;;;;;6.43;1.35;;;;;;;7.53;97.87;97999.03;5163104;28;20455;-73
2023/11/04 04:47:22;;;;;;;3.53;0.70;;;;;;;7.43;97.11;98003.16;5165931;28;20430;-74
2023/11/04 04:49:52;;;;;;;3.75;0.60;;;;;;;7.33;97.67;97996.06;5163637;28;20028;-75
2023/11/04 04:52:22;;;;;;;2.85;0.85;;;;;;;7.28;99.16;97997.28;5166564;28;20045;-75
2023/11/04 04:54:53;;;;;;;5.57;0.70;;;;;;;7.22;98.86;97990.69;5163196;28;20026;-74
2023/11/04 04:57:23;;;;;;;3.15;0.70;;;;;;;7.21;97.99;97991.63;5162309;28;20026;-73
2023/11/04 04:59:54;;;;;;;4.03;0.68;;;;;;;7.03;98.47;97995.38;5163068;28;20030;-73
2023/11/04 05:02:24;;;;;;;1.85;0.57;;;;;;;6.98;99.52;97996.59;5164734;28;20033;-71
2023/11/04 05:04:55;;;;;;;4.13;0.82;;;;;;;6.90;99.69;97998.84;5163591;28;20054;-73
2023/11/04 05:07:25;;;;;;;4.47;0.65;;;;;;;6.84;100.00;97994.88;5163666;28;20013;-73
2023/11/04 05:09:56;;;;;;;2.90;0.80;;;;;;;6.74;99.44;98000.72;5162474;28;20126;-73
2023/11/04 05:12:26;;;;;;;3.33;0.70;;;;;;;6.76;100.00;97998.88;5163712;28;20026;-73
2023/11/04 05:14:57;;;;;;;2.40;0.65;;;;;;;6.66;100.00;97997.75;5163886;28;20471;-73
2023/11/04 05:17:27;;;;;;;4.57;1.00;;;;;;;6.64;100.00;98004.78;5165023;28;20483;-74
2023/11/04 05:19:57;;;;;;;2.78;0.73;;;;;;;6.57;100.00;97999.13;5163363;28;20029;-73
2023/11/04 05:22:27;;;;;;;4.15;0.90;;;;;;;6.59;100.00;97993.88;5167024;28;20049;-73
2023/11/04 05:24:58;;;;;;;3.90;0.80;;;;;;;6.58;100.00;97994.78;5162566;28;20290;-74
2023/11/04 05:27:28;;;;;;;1.20;0.50;;;;;;;6.62;100.00;97986.72;5164655;28;20052;-73
2023/11/04 05:29:59;;;;;;;2.88;0.80;;;;;;;6.62;100.00;97996.28;5164850;28;20121;-74
2023/11/04 05:32:29;;;;;;;3.83;0.70;;;;;;;6.64;100.00;97991.81;5163668;28;20080;-73
2023/11/04 05:35:00;;;;;;;3.72;0.90;;;;;;;6.58;100.00;97987.00;5169229;28;20264;-73
2023/11/04 05:37:30;;;;;;;3.00;0.80;;;;;;;6.56;100.00;97987.09;5168387;28;20396;-73
2023/11/04 05:40:04;;;;;;;4.32;1.00;;;;;;;6.56;100.00;97987.09;5166820;28;20056;-73
2023/11/04 05:42:35;;;;;;;3.17;0.60;;;;;;;6.64;100.00;97978.84;5164192;28;20041;-73
2023/11/04 05:45:05;;;;;;;4.90;0.70;;;;;;;6.54;100.00;97973.38;5163963;28;20026;-73
2023/11/04 05:47:36;;;;;;;3.17;0.80;;;;;;;6.60;100.00;97972.19;5164581;28;20052;-73
2023/11/04 05:50:06;;;;;;;2.05;0.80;;;;;;;6.65;100.00;97980.50;5165353;28;20039;-74
2023/11/04 05:52:37;;;;;;;4.32;0.80;;;;;;;6.61;100.00;97973.84;5165922;28;20609;-74
2023/11/04 05:55:07;;;;;;;3.25;0.80;;;;;;;6.58;100.00;97966.25;5166901;28;20034;-73
2023/11/04 05:57:38;;;;;;;2.50;0.75;;;;;;;6.58;100.00;97969.66;5169436;28;20388;-73
2023/11/04 06:00:12;;;;;;;2.33;0.75;;;;;;;6.56;100.00;97960.34;5169708;28;20038;-73
2023/11/04 06:02:43;;;;;;;5.72;0.80;;;;;;;6.52;100.00;97958.81;5169422;28;20018;-73
2023/11/04 06:05:13;;;;;;;1.50;0.65;;;;;;;6.45;100.00;97960.16;5170457;28;20038;-73
2023/11/04 06:07:44;;;;;;;3.42;0.80;;;;;;;6.49;100.00;97959.03;5167337;28;20572;-73
2023/11/04 06:10:14;;;;;;;2.63;0.80;;;;;;;6.46;100.00;97959.22;5172278;28;20027;-74
2023/11/04 06:12:44;;;;;;;2.58;0.90;;;;;;;6.46;100.00;97959.22;5170652;28;20030;-73
2023/11/04 06:15:15;;;;;;;2.25;0.70;;;;;;;6.40;100.00;97960.41;5171933;28;20030;-73
2023/11/04 06:17:45;;;;;;;1.40;0.57;;;;;;;6.51;100.00;97957.16;5167317;28;21117;-73
2023/11/04 06:20:15;;;;;;;3.00;0.80;;;;;;;6.54;100.00;97957.81;5171229;28;20412;-73
2023/11/04 06:22:47;;;;;;;1.88;0.80;;;;;;;6.58;100.00;97961.06;5169094;28;20134;-73
2023/11/04 06:25:18;;;;;;;2.15;0.70;;;;;;;6.73;100.00;97962.72;5165565;28;20034;-73
2023/11/04 06:27:48;;;;;;;2.25;0.60;;;;;;;6.81;100.00;97944.91;5169150;28;20034;-73
2023/11/04 06:30:19;;;;;;;3.33;0.73;;;;;;;7.02;100.00;97959.13;5167503;28;20049;-73
2023/11/04 06:32:49;;;;;;;4.13;0.85;;;;;;;7.10;100.00;97956.91;5169543;28;20060;-73
2023/11/04 06:35:20;;;;;;;0.82;0.50;;;;;;;7.25;100.00;97948.13;5171962;28;20116;-75
2023/11/04 06:37:51;;;;;;;4.72;0.77;;;;;;;7.21;100.00;97941.44;5170559;28;20599;-75
2023/11/04 06:40:22;;;;;;;2.67;0.77;;;;;;;7.18;100.00;97944.25;5172189;28;20075;-73
2023/11/04 06:42:52;;;;;;;3.53;0.75;;;;;;;7.22;100.00;97940.50;5169830;28;20050;-73
2023/11/04 06:45:22;;;;;;;2.22;0.68;;;;;;;7.25;100.00;97948.13;5174391;28;20530;-74
2023/11/04 06:47:53;;;;;;;1.48;0.65;;;;;;;7.20;100.00;97945.81;5167740;28;20049;-74
2023/11/04 06:50:23;;;;;;;0.93;0.60;;;;;;;7.20;100.00;97937.19;5172592;28;20029;-73
2023/11/04 06:52:53;;;;;;;4.03;0.98;;;;;;;7.19;100.00;97931.16;5169011;28;20025;-74
2023/11/04 06:55:24;;;;;;;1.95;0.88;;;;;;;7.10;100.00;97933.53;5166778;28;20026;-73
2023/11/04 06:57:54;;;;;;;4.80;0.60;;;;;;;7.19;100.00;97932.91;5170649;28;20101;-74
2023/11/04 07:00:24;;;;;;;1.25;0.73;;;;;;;7.21;100.00;97928.47;5170754;28;20013;-73
2023/11/04 07:02:55;;;;;;;3.63;0.70;;;;;;;7.27;100.00;97922.88;5159436;28;20030;-74
2023/11/04 07:05:25;;;;;;;2.60;0.70;;;;;;;7.33;100.00;97929.34;5170586;28;20026;-73
2023/11/04 07:07:55;;;;;;;3.05;0.73;;;;;;;7.33;100.00;97920.72;5160085;28;20129;-74
2023/11/04 07:10:27;;;;;;;2.20;0.80;;;;;;;7.35;100.00;97917.09;5165724;28;20029;-71
2023/11/04 07:12:57;;;;;;;2.20;0.80;;;;;;;7.43;100.00;97920.03;5163510;28;20051;-73
2023/11/04 07:15:28;;;;;;;1.67;0.65;;;;;;;7.49;100.00;97909.22;5164843;28;20056;-73
2023/11/04 07:17:59;;;;;;;1.15;0.50;;;;;;;7.66;100.00;97913.31;5163565;28;20030;-73
2023/11/04 07:20:29;;;;;;;1.00;0.60;;;;;;;7.72;100.00;97913.72;5165705;28;20039;-73
2023/11/04 07:23:00;;;;;;;2.13;0.70;;;;;;;7.75;100.00;97905.75;5163035;28;20054;-74
2023/11/04 07:25:30;;;;;;;0.85;0.50;;;;;;;7.86;100.00;97908.44;5193134;22;20347;-76
2023/11/04 07:28:00;;;;;;;1.73;0.80;;;;;;;7.84;100.00;97909.50;5184082;28;20030;-77
2023/11/04 07:30:31;;;;;;;1.77;0.70;;;;;;;7.95;100.00;97901.78;5181466;28;20456;-77
2023/11/04 07:33:01;;;;;;;4.60;0.77;;;;;;;8.05;100.00;97902.84;5186728;28;20225;-76
2023/11/04 07:35:32;;;;;;;1.58;0.65;;;;;;;8.18;100.00;97906.31;5190509;28;20066;-77
2023/11/04 07:38:02;;;;;;;3.53;0.60;;;;;;;8.38;98.49;97895.34;5190348;28;20115;-77
2023/11/04 07:40:33;;;;;;;3.03;0.50;;;;;;;8.30;99.98;97898.50;5186688;28;20025;-76
2023/11/04 07:43:03;;;;;;;2.65;0.60;;;;;;;8.69;98.80;97887.06;5185544;28;20049;-77
2023/11/04 07:45:34;;;;;;;1.58;0.60;;;;;;;9.01;97.00;97891.63;5185127;28;20044;-74
2023/11/04 07:48:05;;;;;;;2.00;0.60;;;;;;;9.43;93.67;97875.47;5185223;28;20447;-77
2023/11/04 07:50:38;;;;;;;1.88;0.55;;;;;;;10.10;90.97;97879.91;5185086;28;20040;-75
2023/11/04 07:53:08;;;;;;;2.10;0.55;;;;;;;10.91;87.35;97873.44;5184857;28;20029;-77
2023/11/04 07:55:39;;;;;;;1.58;0.50;;;;;;;11.45;84.54;97864.59;5181249;28;20033;-77
2023/11/04 07:58:09;;;;;;;1.02;0.40;;;;;;;12.82;80.15;97857.03;5187954;28;20036;-77
2023/11/04 08:00:39;;;;;;;0.85;0.40;;;;;;;13.40;76.45;97858.81;5185410;28;20491;-77
2023/11/04 08:03:10;;;;;;;0.82;0.35;;;;;;;13.89;74.10;97853.38;5184245;28;20491;-78
2023/11/04 08:05:40;;;;;;;2.75;0.50;;;;;;;14.40;70.28;97846.72;5186810;28;20032;-77
2023/11/04 08:08:12;;;;;;;2.13;0.38;;;;;;;15.31;68.59;97848.31;5187208;28;20083;-77
2023/11/04 08:10:42;;;;;;;0.80;0.30;;;;;;;16.66;66.36;97849.41;5186066;28;20037;-74
2023/11/04 08:13:12;;;;;;;1.23;0.20;;;;;;;16.51;64.34;97849.19;5190277;28;20383;-77
2023/11/04 08:15:43;;;;;;;0.85;0.30;;;;;;;16.85;65.94;97845.56;5188177;28;20043;-77
2023/11/04 08:18:13;;;;;;;1.10;0.30;;;;;;;17.68;61.30;97839.28;5188764;28;20033;-78
2023/11/04 08:20:43;;;;;;;0.75;0.30;;;;;;;16.48;64.13;97846.88;5187704;28;20030;-78
2023/11/04 08:23:13;;;;;;;1.05;0.40;;;;;;;14.73;69.86;97864.56;5189598;28;20499;-77
2023/11/04 08:25:45;;;;;;;0.60;0.20;;;;;;;13.62;72.60;97848.84;5187509;28;20395;-78
2023/11/04 08:28:15;;;;;;;0.60;0.30;;;;;;;12.64;78.26;97855.22;5187194;28;20076;-77
2023/11/04 08:30:46;;;;;;;1.60;0.20;;;;;;;12.07;79.02;97852.34;5183351;28;20137;-76
2023/11/04 08:33:16;;;;;;;0.40;0.20;;;;;;;12.17;77.90;97846.22;5187018;28;20427;-77
2023/11/04 08:35:47;;;;;;;1.38;0.30;;;;;;;12.40;77.53;97834.59;5187824;28;20044;-75
2023/11/04 08:38:18;;;;;;;0.85;0.30;;;;;;;12.04;81.37;97832.50;5184885;28;20083;-77
2023/11/04 08:40:48;;;;;;;2.70;0.30;;;;;;;11.94;79.68;97826.38;5181586;28;20025;-72
2023/11/04 08:43:18;;;;;;;2.13;0.30;;;;;;;12.00;80.68;97823.25;5186148;28;20048;-77
2023/11/04 08:45:49;;;;;;;0.60;0.20;;;;;;;12.08;79.74;97812.09;5184695;28;20030;-77
2023/11/04 08:48:19;;;;;;;0.60;0.30;;;;;;;12.06;79.75;97814.03;5183263;28;20110;-77
2023/11/04 08:50:50;;;;;;;0.93;0.30;;;;;;;11.84;79.42;97809.81;5180540;28;20029;-77
2023/11/04 08:53:20;;;;;;;0.63;0.30;;;;;;;12.18;78.51;97810.38;5181299;28;20037;-77
2023/11/04 08:55:51;;;;;;;0.50;0.30;;;;;;;12.23;79.82;97811.66;5180740;28;20032;-77
2023/11/04 08:58:21;;;;;;;1.05;0.40;;;;;;;12.00;80.09;97811.94;5187835;28;20049;-77
2023/11/04 09:00:51;;;;;;;1.05;0.30;;;;;;;11.72;80.08;97810.84;5182110;28;20130;-77
2023/11/04 09:03:23;;;;;;;2.03;0.50;;;;;;;11.55;80.01;97806.16;5187113;28;20034;-77
2023/11/04 09:05:53;;;;;;;0.85;0.30;;;;;;;11.54;81.32;97801.03;5186700;28;20048;-73
2023/11/04 09:08:23;;;;;;;0.90;0.35;;;;;;;11.83;80.61;97807.31;5192440;28;20037;-77
2023/11/04 09:10:55;;;;;;;0.88;0.40;;;;;;;12.12;80.25;97801.25;5188307;28;20083;-73
2023/11/04 09:13:26;;;;;;;1.60;0.20;;;;;;;12.41;79.13;97807.44;5191480;28;20600;-77
2023/11/04 09:15:57;;;;;;;0.90;0.32;;;;;;;12.59;78.23;97803.19;5189931;28;20025;-75
2023/11/04 09:18:27;;;;;;;1.02;0.38;;;;;;;12.93;78.45;97804.53;5191450;28;20047;-73
2023/11/04 09:20:58;;;;;;;1.15;0.30;;;;;;;13.06;78.53;97802.47;5190754;28;20021;-74
2023/11/04 09:23:28;;;;;;;1.50;0.52;;;;;;;13.35;77.36;97816.41;5190956;28;20029;-77
2023/11/04 09:25:59;;;;;;;0.73;0.35;;;;;;;13.10;76.35;97822.22;5191014;28;20036;-75
2023/11/04 09:28:30;;;;;;;3.00;0.40;;;;;;;13.35;76.93;97811.16;5183639;28;20040;-76
2023/11/04 09:31:00;;;;;;;1.02;0.40;;;;;;;13.47;76.16;97817.91;5183962;28;20287;-74
2023/11/04 09:33:33;;;;;;;0.82;0.30;;;;;;;13.19;76.61;97816.97;5194010;28;20041;-78
2023/11/04 09:36:03;;;;;;;0.82;0.40;;;;;;;13.12;76.62;97820.28;5189107;28;20129;-76
2023/11/04 09:38:34;;;;;;;2.72;0.28;;;;;;;13.35;76.50;97821.66;5185683;28;20125;-77
2023/11/04 09:41:04;;;;;;;4.00;0.60;;;;;;;13.09;76.58;97807.44;5186011;28;20045;-77
2023/11/04 09:43:35;;;;;;;0.77;0.30;;;;;;;13.16;77.69;97803.28;5184541;28;20470;-77
2023/11/04 09:46:07;;;;;;;1.52;0.40;;;;;;;13.18;78.19;97801.34;5184880;28;20029;-76
2023/11/04 09:48:38;;;;;;;1.77;0.40;;;;;;;13.22;77.53;97797.50;5185833;28;20417;-76
2023/11/04 09:51:15;;;;;;;1.65;0.45;;;;;;;13.20;76.58;97794.22;5185347;28;20034;-76
2023/11/04 09:53:53;;;;;;;2.67;0.28;;;;;;;12.84;77.16;97786.97;5181295;28;20026;-75
2023/11/04 09:56:24;;;;;;;1.45;0.40;;;;;;;12.56;78.04;97786.91;5183184;28;20034;-73
2023/11/04 09:58:54;;;;;;;0.93;0.40;;;;;;;12.67;78.28;97785.00;5188661;28;20040;-74
2023/11/04 10:01:25;;;;;;;1.38;0.28;;;;;;;12.85;79.04;97772.06;5184084;28;20030;-76
2023/11/04 10:03:55;;;;;;;1.02;0.30;;;;;;;12.80;80.26;97775.09;5185992;28;20423;-74
2023/11/04 10:06:26;;;;;;;3.95;0.47;;;;;;;13.04;80.04;97772.97;5184407;28;20025;-75
2023/11/04 10:08:56;;;;;;;1.08;0.40;;;;;;;12.95;79.82;97770.34;5188821;28;20108;-74
2023/11/04 10:11:29;;;;;;;1.27;0.20;;;;;;;13.09;77.89;97773.38;5185253;28;20029;-77
2023/11/04 10:14:01;;;;;;;1.85;0.35;;;;;;;12.66;78.52;97758.97;5182834;28;20498;-74
2023/11/04 10:16:31;;;;;;;0.70;0.32;;;;;;;12.74;79.12;97754.69;5181575;28;20491;-75
2023/11/04 10:19:02;;;;;;;3.30;0.40;;;;;;;12.84;78.49;97745.03;5182618;28;20034;-77
2023/11/04 10:21:33;;;;;;;0.55;0.20;;;;;;;12.87;79.32;97729.06;5183144;28;20134;-77
2023/11/04 10:24:04;;;;;;;0.73;0.40;;;;;;;13.15;81.44;97733.47;5184392;28;20124;-77
2023/11/04 10:26:36;;;;;;;2.00;0.45;;;;;;;13.09;78.64;97728.78;5185446;28;20030;-77
2023/11/04 10:29:07;;;;;;;1.35;0.40;;;;;;;12.99;79.73;97730.56;5186156;28;20037;-77
2023/11/04 10:31:41;;;;;;;0.73;0.38;;;;;;;13.11;79.82;97735.56;5183488;28;20052;-76
2023/11/04 10:34:14;;;;;;;0.98;0.40;;;;;;;13.16;79.02;97728.09;5184676;28;20025;-77
2023/11/04 10:36:46;;;;;;;1.20;0.30;;;;;;;13.18;78.18;97736.66;5184793;28;20041;-76
2023/11/04 10:39:22;;;;;;;3.70;0.50;;;;;;;13.28;78.97;97736.63;5184963;28;20060;-76
2023/11/04 10:42:10;;;;;;;0.63;0.20;;;;;;;13.18;77.35;97739.28;5179946;28;20107;-74
2023/11/04 10:44:48;;;;;;;0.55;0.30;;;;;;;12.82;77.59;97731.25;5183746;28;20033;-77
2023/11/04 10:47:35;;;;;;;2.10;0.43;;;;;;;13.04;78.81;97739.69;5184851;28;20037;-77
2023/11/04 10:50:12;;;;;;;2.85;0.43;;;;;;;13.03;77.74;97729.34;5180692;28;20037;-76
2023/11/04 10:53:02;;;;;;;1.13;0.35;;;;;;;13.05;77.75;97730.03;5174394;28;20487;-76
2023/11/04 10:55:42;;;;;;;1.75;0.30;;;;;;;13.07;77.78;97733.34;5178028;28;20650;-77
2023/11/04 10:58:19;;;;;;;0.20;0.20;;;;;;;12.98;76.60;97728.13;5179951;28;20096;-74
2023/11/04 11:00:51;;;;;;;1.33;0.30;;;;;;;13.09;77.80;97729.59;5182622;28;20061;-78
2023/11/04 11:03:22;;;;;;;0.73;0.30;;;;;;;12.98;78.00;97721.06;5180235;28;20595;-76
2023/11/04 11:05:55;;;;;;;3.05;0.25;;;;;;;13.27;78.72;97717.44;5177805;28;20025;-74
2023/11/04 11:08:25;;;;;;;1.20;0.30;;;;;;;13.28;77.48;97713.03;5180077;28;20484;-77
2023/11/04 11:11:13;;;;;;;1.65;0.40;;;;;;;13.13;76.89;97702.16;5179164;28;20034;-77
2023/11/04 11:13:48;;;;;;;2.90;0.50;;;;;;;13.33;77.48;97697.69;5179225;28;20198;-74
2023/11/04 11:16:19;;;;;;;0.57;0.20;;;;;;;13.16;77.57;97698.41;5177545;28;20080;-76
2023/11/04 11:18:49;;;;;;;0.57;0.25;;;;;;;13.20;78.40;97689.31;5181653;28;20394;-77
2023/11/04 11:21:21;;;;;;;1.38;0.40;;;;;;;13.18;78.66;97689.44;5182930;28;20376;-74
2023/11/04 11:23:51;;;;;;;0.70;0.30;;;;;;;13.12;78.77;97692.63;5177873;28;20124;-77
2023/11/04 11:26:21;;;;;;;1.73;0.40;;;;;;;13.12;79.23;97690.03;5185317;28;20112;-77
2023/11/04 11:28:52;;;;;;;0.55;0.20;;;;;;;13.35;80.61;97677.38;5187213;28;20111;-75
2023/11/04 11:31:28;;;;;;;1.20;0.43;;;;;;;13.38;79.00;97675.31;5188813;28;20071;-77
2023/11/04 11:34:07;;;;;;;1.05;0.30;;;;;;;13.42;78.98;97673.25;5189715;28;20536;-74
2023/11/04 11:36:38;;;;;;;0.68;0.30;;;;;;;13.54;79.27;97672.09;5183213;28;20022;-77
2023/11/04 11:39:09;;;;;;;0.55;0.30;;;;;;;13.63;79.50;97681.72;5185576;28;20445;-78
2023/11/04 11:41:43;;;;;;;0.88;0.30;;;;;;;13.51;78.46;97675.84;5179112;28;20072;-77
2023/11/04 11:44:14;;;;;;;0.28;0.20;;;;;;;13.34;76.93;97676.56;5180065;28;20038;-78
2023/11/04 11:46:45;;;;;;;1.33;0.35;;;;;;;13.10;77.67;97678.00;5181720;28;20382;-77
2023/11/04 11:49:16;;;;;;;1.70;0.30;;;;;;;12.90;79.12;97671.91;5184350;28;20793;-77
2023/11/04 11:51:46;;;;;;;0.60;0.25;;;;;;;12.96;77.59;97667.94;5182320;28;20032;-77
2023/11/04 11:54:17;;;;;;;0.90;0.22;;;;;;;13.01;78.12;97663.09;5182595;28;20049;-77